Due to severe server failure at the provider, not all demo sites are operational. Will take some days to rebuilt everything.

Demonstration site - Click on the  for more information

This is an optional block. Switch it on/off in your settings-file: $SITE['bannerTop'] = false; or $SITE['bannerBottom'] = false;

You can display ads, any other important text or photo’s using text / html or PHP code.

You can place one or more at the top and or bottom and it can all be different for content / size .



Visit our other weather sites:

Template documentation
and downloads

And another site



Nearby METAR Reports

   
EBAW - Antwerp
Updated: 23-04-2019 08:20
Clear  
Clear  
   Wind: East 13 km/h
Wind: East 13 km/h
Temperature: 12°C
Dew Point: 3°C
Humidity: 54%
Barometer: 999 hPa
Visibility: More than 10 km
Cloud details: Clear ft
EBAW 230620Z 08007KT CAVOK 12/03 Q0999 NOSIG
EBLG - Liège
Updated: 23-04-2019 08:20
Clear  
Clear  
   Wind: NNE 7.4 km/h
Wind: NNE 7.4 km/h
Temperature: 11°C
Dew Point: 6°C
Humidity: 72%
Barometer: 998 hPa
Visibility: More than 10 km
Cloud details: Clear ft
EBLG 230620Z 02004KT CAVOK 11/06 Q0998 NOSIG
EBCV - Mons/Bergen
Updated: 23-04-2019 07:55
Clear  
Clear  
   Wind: NE 7.4 km/h
Wind: NE 7.4 km/h
Temperature: 10°C
Wind Chill: 9°C
Dew Point: 6°C
Humidity: 76%
Barometer: 998 hPa
Clouds: Clear
Visibility: More than 10 km
Cloud details: Clear ft
EBCV 230555Z AUTO 05004KT 9999 NCD 10/06 Q0998 BLU
EHBK - Maastricht
Updated: 23-04-2019 07:55
Partly Cloudy  
Partly Cloudy  
   Wind: East 22.2 km/h
Wind: East 22.2 km/h
Temperature: 12°C
Dew Point: 3°C
Humidity: 54%
Barometer: 999 hPa
Clouds: Partly Cloudy
Visibility: More than 10 km
Cloud details: Partly Cloudy ft
EHBK 230555Z AUTO 08012KT 050V110 9999 NSC 12/03 Q0999 NOSIG
ELLX - Luxemburg
Updated: 23-04-2019 08:20
Clear  
Clear  
   Wind: ENE 22.2 km/h
Wind: ENE 22.2 km/h
Temperature: 11°C
Dew Point: 2°C
Humidity: 54%
Barometer: 998 hPa
Visibility: More than 10 km
Cloud details: Clear ft
ELLX 230620Z 06012KT CAVOK 11/02 Q0998 NOSIG
EBOS - Oostende
Updated: 23-04-2019 08:20
Clear  
Clear  
   Wind: East 14.8 km/h
Wind: East 14.8 km/h
Temperature: 12°C
Dew Point: 4°C
Humidity: 58%
Barometer: 998 hPa
Visibility: More than 10 km
Cloud details: Clear ft
EBOS 230620Z 09008KT CAVOK 12/04 Q0998 NOSIG

Script developed by  Saratoga-weather.org Adapted for the template by  Weerstation Leuven

You find our weather info also at:

FRWN

Equipment we use:

Provider
Robohost

Robohost

This is an optional block. Switch it on/off in your settings-file: $SITE['bannerTop'] = false; or $SITE['bannerBottom'] = false;

You can display ads, any other important text or photo’s using text / html or PHP code.

You can place one or more at the top and or bottom and it can all be different for content / size .